Time;durP1;ratioP1;P1;durP2;ratioP2;P2;SDS_P1;SDS_P2;PMS_P1;PMS_P2;Temp;Humidity;BMP_temperature;BMP_pressure;BME280_temperature;BME280_humidity;BME280_pressure;Samples;Min_cycle;Max_cycle;Signal;HPM_P1;HPM_P2
2022/05/13 00:01:31;;;;;;;6.78;2.60;;;;;;;12.05;81.30;101746.66;6428056;23;20005;-72
2022/05/13 00:04:03;;;;;;;8.07;2.45;;;;;;;12.08;80.73;101742.94;6428107;23;20027;-71
2022/05/13 00:06:35;;;;;;;8.88;2.70;;;;;;;11.96;80.86;101738.63;6427729;23;20008;-70
2022/05/13 00:09:06;;;;;;;6.15;2.50;;;;;;;11.93;82.34;101737.06;6428591;23;20005;-71
2022/05/13 00:11:38;;;;;;;5.85;2.22;;;;;;;11.97;80.81;101735.91;6427580;23;20076;-70
2022/05/13 00:14:09;;;;;;;9.18;2.45;;;;;;;11.87;82.83;101741.00;6428042;23;20005;-71
2022/05/13 00:16:41;;;;;;;8.07;2.63;;;;;;;11.88;82.83;101733.97;6428362;23;20013;-70
2022/05/13 00:19:12;;;;;;;13.18;3.22;;;;;;;11.81;84.66;101736.19;6427924;23;20008;-70
2022/05/13 00:21:43;;;;;;;10.82;2.28;;;;;;;11.81;84.21;101741.44;6428456;23;20091;-72
2022/05/13 00:24:14;;;;;;;10.18;2.83;;;;;;;11.81;85.29;101740.59;6427980;23;20016;-70
2022/05/13 00:26:46;;;;;;;10.18;2.65;;;;;;;11.80;85.44;101734.50;6428063;23;20084;-70
2022/05/13 00:29:17;;;;;;;7.70;2.80;;;;;;;11.76;84.19;101733.06;6428277;23;20013;-70
2022/05/13 00:31:49;;;;;;;8.20;2.33;;;;;;;11.71;86.57;101740.47;6428330;23;20087;-70
2022/05/13 00:34:21;;;;;;;9.63;2.53;;;;;;;11.66;86.88;101737.34;6428553;23;20591;-70
2022/05/13 00:36:52;;;;;;;8.75;2.75;;;;;;;11.67;87.13;101733.78;6427123;23;20020;-71
2022/05/13 00:39:23;;;;;;;9.38;2.53;;;;;;;11.61;87.33;101744.72;6428462;23;20044;-70
2022/05/13 00:41:55;;;;;;;12.75;3.28;;;;;;;11.58;88.90;101740.53;6428364;23;20012;-72
2022/05/13 00:44:26;;;;;;;7.90;2.30;;;;;;;11.60;89.08;101732.56;6427659;23;20029;-70
2022/05/13 00:46:58;;;;;;;7.90;2.70;;;;;;;11.56;87.83;101737.22;6428142;23;20042;-71
2022/05/13 00:49:31;;;;;;;10.13;3.15;;;;;;;11.50;89.31;101736.81;6428097;23;20280;-70
2022/05/13 00:52:03;;;;;;;9.50;2.55;;;;;;;11.52;89.57;101734.94;6428485;23;20020;-70
2022/05/13 00:54:37;;;;;;;9.53;2.63;;;;;;;11.45;89.14;101731.91;6427549;23;20005;-70
2022/05/13 00:57:11;;;;;;;10.05;3.05;;;;;;;11.42;88.39;101732.97;6401639;23;20012;-70
2022/05/13 00:59:44;;;;;;;5.57;2.55;;;;;;;11.38;88.47;101731.53;6428177;23;20030;-70
2022/05/13 01:02:16;;;;;;;9.45;2.50;;;;;;;11.28;87.84;101727.06;6427525;23;20036;-70
2022/05/13 01:04:48;;;;;;;7.82;2.33;;;;;;;11.26;87.06;101723.75;6428059;23;20071;-70
2022/05/13 01:07:21;;;;;;;8.38;2.72;;;;;;;11.26;86.31;101735.06;6427387;23;20005;-71
2022/05/13 01:09:56;;;;;;;6.85;2.08;;;;;;;11.28;86.53;101738.41;6427643;23;20325;-70
2022/05/13 01:12:33;;;;;;;8.13;2.25;;;;;;;11.19;85.57;101732.06;6401607;23;20024;-70
2022/05/13 01:15:09;;;;;;;6.75;1.67;;;;;;;11.18;85.81;101738.25;6428255;23;20241;-70
2022/05/13 01:20:39;;;;;;;5.65;1.77;;;;;;;11.24;85.33;101729.09;6428575;23;20029;-71
2022/05/13 01:23:14;;;;;;;7.05;1.80;;;;;;;11.13;84.68;101727.25;6427697;23;20001;-71
2022/05/13 01:25:51;;;;;;;4.90;2.05;;;;;;;11.12;84.55;101714.25;6427430;23;20005;-70
2022/05/13 01:28:36;;;;;;;6.05;1.92;;;;;;;11.17;84.52;101720.84;6428207;23;20009;-70
2022/05/13 01:31:13;;;;;;;6.13;2.10;;;;;;;11.11;83.94;101725.69;6427991;23;20345;-71
2022/05/13 01:33:45;;;;;;;6.13;2.25;;;;;;;11.02;84.10;101721.09;6428506;23;20004;-70
2022/05/13 01:36:16;;;;;;;7.40;2.15;;;;;;;11.06;83.74;101727.78;6427388;23;20009;-70
2022/05/13 01:38:49;;;;;;;7.88;2.00;;;;;;;11.04;84.07;101730.53;6428077;23;20083;-71
2022/05/13 01:41:20;;;;;;;6.55;1.90;;;;;;;11.05;83.74;101734.00;6428534;23;20015;-70
2022/05/13 01:43:52;;;;;;;9.30;1.90;;;;;;;11.10;83.31;101734.50;6427868;23;20160;-70
2022/05/13 01:46:24;;;;;;;6.05;1.65;;;;;;;11.12;83.36;101738.69;6400820;23;20380;-70
2022/05/13 01:48:56;;;;;;;6.97;1.60;;;;;;;11.17;83.50;101731.34;6427888;23;20437;-71
2022/05/13 01:51:27;;;;;;;3.63;1.50;;;;;;;11.12;82.64;101722.13;6427833;23;20075;-70
2022/05/13 01:54:00;;;;;;;4.70;1.58;;;;;;;11.22;82.81;101738.88;6426957;23;20005;-71
2022/05/13 01:56:31;;;;;;;5.60;1.70;;;;;;;11.21;82.59;101734.53;6427715;23;20013;-71
2022/05/13 01:59:02;;;;;;;6.53;1.95;;;;;;;11.22;82.88;101731.00;6401727;23;20016;-70
2022/05/13 02:01:34;;;;;;;6.57;1.50;;;;;;;11.22;82.46;101733.63;6426795;23;20008;-70
2022/05/13 02:04:05;;;;;;;5.47;1.80;;;;;;;11.25;82.38;101737.78;6427755;23;20071;-70
2022/05/13 02:06:36;;;;;;;5.10;1.40;;;;;;;11.23;82.65;101735.28;6400071;23;20385;-71
2022/05/13 02:09:07;;;;;;;6.07;1.70;;;;;;;11.19;82.50;101728.59;6427758;23;20012;-71
2022/05/13 02:11:39;;;;;;;5.40;1.95;;;;;;;11.26;82.61;101735.06;6427751;23;20325;-70
2022/05/13 02:14:10;;;;;;;7.13;1.77;;;;;;;11.22;83.52;101732.78;6427412;23;20017;-70
2022/05/13 02:16:42;;;;;;;7.47;2.17;;;;;;;11.26;84.08;101729.00;6428033;23;20013;-70
2022/05/13 02:19:14;;;;;;;7.20;2.00;;;;;;;11.29;83.32;101728.75;6427892;23;20012;-70
2022/05/13 02:21:45;;;;;;;7.03;1.50;;;;;;;11.27;83.71;101723.63;6427414;23;20757;-70
2022/05/13 02:24:17;;;;;;;6.80;2.03;;;;;;;11.28;83.71;101727.91;6427433;23;20016;-71
2022/05/13 02:26:48;;;;;;;5.32;1.60;;;;;;;11.20;84.60;101727.63;6428114;23;20337;-70
2022/05/13 02:29:19;;;;;;;7.07;1.63;;;;;;;11.19;84.75;101725.97;6428308;23;20100;-70
2022/05/13 02:31:50;;;;;;;8.18;1.65;;;;;;;11.17;85.05;101722.59;6427384;23;20013;-71
2022/05/13 02:34:22;;;;;;;8.75;2.28;;;;;;;11.22;85.83;101722.28;6426360;23;20032;-71
2022/05/13 02:36:53;;;;;;;6.38;1.80;;;;;;;11.17;85.50;101719.97;6427764;23;20009;-71
2022/05/13 02:39:24;;;;;;;9.95;2.25;;;;;;;11.19;85.72;101718.09;6429505;23;20181;-70
2022/05/13 02:41:56;;;;;;;8.48;1.92;;;;;;;11.18;86.23;101726.94;6430037;23;20088;-70
2022/05/13 02:44:27;;;;;;;8.35;1.95;;;;;;;11.25;85.97;101722.91;6402951;23;20005;-71
2022/05/13 02:46:58;;;;;;;6.32;2.08;;;;;;;11.23;87.42;101719.56;6428867;23;20416;-71
2022/05/13 02:49:30;;;;;;;8.35;2.00;;;;;;;11.26;87.31;101729.81;6429926;23;20013;-72
2022/05/13 02:52:01;;;;;;;5.80;2.08;;;;;;;11.27;87.48;101723.63;6422147;23;20013;-70
2022/05/13 02:54:33;;;;;;;9.00;2.50;;;;;;;11.30;87.76;101723.41;6429287;23;20092;-71
2022/05/13 02:57:05;;;;;;;9.63;2.35;;;;;;;11.34;87.88;101711.72;6429462;23;20376;-70
2022/05/13 02:59:36;;;;;;;8.90;2.35;;;;;;;11.36;88.04;101706.34;6429540;23;20015;-72
2022/05/13 03:02:07;;;;;;;7.57;2.65;;;;;;;11.36;88.73;101717.69;6429698;23;20216;-71
2022/05/13 03:04:39;;;;;;;7.40;2.30;;;;;;;11.39;89.25;101729.75;6429148;23;20005;-72
2022/05/13 03:07:10;;;;;;;7.43;2.30;;;;;;;11.41;90.03;101719.97;6429130;23;20200;-70
2022/05/13 03:09:41;;;;;;;8.35;2.50;;;;;;;11.42;90.78;101724.28;6430164;23;20322;-70
2022/05/13 03:12:13;;;;;;;7.88;2.72;;;;;;;11.42;91.58;101727.72;6429354;23;20409;-71
2022/05/13 03:14:44;;;;;;;8.70;2.53;;;;;;;11.42;91.62;101717.22;6427865;23;20009;-71
2022/05/13 03:17:15;;;;;;;12.23;3.40;;;;;;;11.48;91.83;101723.81;6429582;23;20016;-70
2022/05/13 03:19:46;;;;;;;11.30;2.40;;;;;;;11.48;92.49;101723.81;6427415;23;20031;-70
2022/05/13 03:22:18;;;;;;;8.63;2.45;;;;;;;11.48;92.60;101710.72;6427759;23;20902;-70
2022/05/13 03:24:49;;;;;;;12.27;3.25;;;;;;;11.51;92.34;101714.88;6429382;23;20011;-71
2022/05/13 03:27:21;;;;;;;7.88;2.97;;;;;;;11.52;92.27;101713.94;6429500;23;20020;-73
2022/05/13 03:29:52;;;;;;;8.13;2.30;;;;;;;11.50;92.74;101711.41;6429675;23;20417;-70
2022/05/13 03:32:24;;;;;;;10.63;3.00;;;;;;;11.47;92.86;101700.31;6429817;23;20424;-70
2022/05/13 03:34:55;;;;;;;9.82;3.00;;;;;;;11.48;92.98;101709.84;6427837;23;20432;-70
2022/05/13 03:37:26;;;;;;;10.25;3.00;;;;;;;11.44;93.74;101711.88;6428857;23;20093;-71
2022/05/13 03:39:58;;;;;;;9.43;2.33;;;;;;;11.40;94.45;101710.41;6429412;23;20005;-71
2022/05/13 03:42:29;;;;;;;7.40;2.85;;;;;;;11.36;94.29;101715.06;6429122;23;20029;-71
2022/05/13 03:45:00;;;;;;;7.63;2.70;;;;;;;11.33;95.00;101715.31;6428585;23;20051;-72
2022/05/13 03:47:32;;;;;;;10.30;3.08;;;;;;;11.26;94.83;101703.59;6428536;23;20043;-70
2022/05/13 03:50:05;;;;;;;11.90;3.45;;;;;;;11.30;95.56;101712.91;6428353;23;20055;-70
2022/05/13 03:52:36;;;;;;;;;;;;;;;11.80;91.56;101707.44;6430199;23;20087;-71
2022/05/13 03:55:08;;;;;;;11.60;3.20;;;;;;;11.34;95.17;101716.13;6428987;23;19995;-71
2022/05/13 03:57:40;;;;;;;10.27;3.03;;;;;;;11.29;96.08;101713.00;6428630;23;20036;-70
2022/05/13 04:00:13;;;;;;;14.95;3.72;;;;;;;11.24;97.36;101717.75;6428617;23;20005;-71
2022/05/13 04:02:44;;;;;;;10.07;3.08;;;;;;;11.24;96.74;101707.25;6427700;23;20011;-70
2022/05/13 04:10:57;;;;;;;10.05;2.90;;;;;;;11.21;97.77;101716.19;6428555;23;20013;-71
2022/05/13 04:16:18;;;;;;;11.65;3.75;;;;;;;11.17;98.80;101715.59;6428948;23;20269;-71
2022/05/13 04:18:51;;;;;;;13.23;4.50;;;;;;;11.17;99.62;101726.09;6427111;23;20001;-70
2022/05/13 04:21:30;;;;;;;7.28;3.28;;;;;;;11.20;99.13;101722.38;6428491;23;20016;-70
2022/05/13 04:24:06;;;;;;;10.85;3.33;;;;;;;11.17;99.94;101710.34;6428728;23;20008;-70
2022/05/13 04:26:38;;;;;;;10.88;4.00;;;;;;;11.15;99.65;101716.66;6428896;23;20016;-71
2022/05/13 04:29:09;;;;;;;10.30;3.33;;;;;;;11.16;99.93;101715.69;6427956;23;20004;-71
2022/05/13 04:31:43;;;;;;;11.65;3.70;;;;;;;11.18;100.00;101724.31;6428592;23;20032;-71
2022/05/13 04:34:14;;;;;;;9.02;3.30;;;;;;;11.16;100.00;101731.44;6428584;23;20252;-71
2022/05/13 04:36:46;;;;;;;10.60;3.60;;;;;;;11.16;100.00;101719.16;6428635;23;20009;-71
2022/05/13 04:39:20;;;;;;;12.57;3.55;;;;;;;11.15;100.00;101724.53;6428392;23;20071;-70
2022/05/13 04:44:41;;;;;;;12.23;3.22;;;;;;;11.20;100.00;101738.97;6427068;23;20013;-71
2022/05/13 04:50:03;;;;;;;15.43;4.30;;;;;;;11.29;100.00;101741.84;6428401;23;20013;-71
2022/05/13 04:52:34;;;;;;;9.63;3.55;;;;;;;11.38;100.00;101751.69;6401649;23;20424;-70
2022/05/13 04:55:06;;;;;;;11.55;4.53;;;;;;;11.42;100.00;101745.25;6427069;23;20016;-71
2022/05/13 04:57:37;;;;;;;12.02;3.72;;;;;;;11.49;100.00;101756.16;6428100;23;20035;-70
2022/05/13 05:00:09;;;;;;;8.80;3.17;;;;;;;11.56;100.00;101752.13;6401772;23;20012;-71
2022/05/13 05:02:40;;;;;;;13.98;4.13;;;;;;;11.58;100.00;101758.06;6428310;23;20088;-70
2022/05/13 05:05:12;;;;;;;8.57;3.15;;;;;;;11.61;100.00;101763.94;6428770;23;20012;-70
2022/05/13 05:07:43;;;;;;;11.77;3.97;;;;;;;11.67;100.00;101763.50;6428140;23;20691;-70
2022/05/13 05:10:15;;;;;;;12.65;3.85;;;;;;;11.73;99.38;101764.81;6428245;23;20087;-70
2022/05/13 05:12:48;;;;;;;10.18;3.55;;;;;;;11.79;98.92;101763.53;6428358;23;20015;-71
2022/05/13 05:15:20;;;;;;;9.50;3.38;;;;;;;11.81;99.04;101765.06;6428673;23;20008;-70
2022/05/13 05:17:51;;;;;;;12.70;3.50;;;;;;;11.86;98.39;101773.47;6428709;23;20031;-71
2022/05/13 05:20:22;;;;;;;9.23;3.25;;;;;;;11.86;98.97;101768.22;6428417;23;20009;-70
2022/05/13 05:22:54;;;;;;;10.65;3.55;;;;;;;11.89;98.81;101778.50;6427610;23;20049;-71
2022/05/13 05:25:28;;;;;;;12.40;3.90;;;;;;;11.92;98.99;101780.03;6425960;23;20009;-71
2022/05/13 05:28:00;;;;;;;13.30;4.00;;;;;;;12.02;98.31;101782.81;6401822;23;20012;-70
2022/05/13 05:30:31;;;;;;;11.55;3.90;;;;;;;12.06;98.25;101782.47;6428680;23;20005;-71
2022/05/13 05:33:02;;;;;;;12.40;4.22;;;;;;;12.20;97.14;101785.81;6427029;23;20341;-70
2022/05/13 05:35:34;;;;;;;14.20;3.92;;;;;;;12.20;97.33;101794.56;6428209;23;20008;-70
2022/05/13 05:38:07;;;;;;;14.40;4.32;;;;;;;12.25;97.87;101799.47;6427185;23;20265;-70
2022/05/13 05:40:40;;;;;;;8.93;4.20;;;;;;;12.27;97.03;101803.63;6400151;23;20352;-70
2022/05/13 05:43:14;;;;;;;12.20;3.55;;;;;;;12.31;97.66;101801.59;6401752;23;20017;-69
2022/05/13 05:45:45;;;;;;;10.55;3.90;;;;;;;12.40;97.08;101809.63;6427504;23;20012;-69
2022/05/13 05:48:22;;;;;;;11.98;3.63;;;;;;;12.45;96.71;101803.16;6428426;23;20005;-70
2022/05/13 05:50:55;;;;;;;11.18;3.83;;;;;;;12.29;96.27;101783.34;6426574;23;20450;-70
2022/05/13 05:59:08;;;;;;;11.23;3.58;;;;;;;12.69;95.42;101813.56;6425828;23;20074;-72
2022/05/13 06:01:39;;;;;;;13.43;4.63;;;;;;;12.79;94.89;101832.91;6398715;23;20464;-69
2022/05/13 06:04:11;;;;;;;13.15;3.97;;;;;;;12.87;95.08;101825.25;6401244;23;20013;-70
2022/05/13 06:06:43;;;;;;;10.05;4.20;;;;;;;12.91;94.78;101819.63;6428049;23;20009;-71
2022/05/13 06:09:15;;;;;;;14.60;4.30;;;;;;;13.05;94.34;101828.25;6427352;23;20059;-69
2022/05/13 06:11:46;;;;;;;13.52;4.18;;;;;;;13.06;93.86;101828.09;6427236;23;20005;-71
2022/05/13 06:14:17;;;;;;;13.10;4.25;;;;;;;13.21;93.49;101836.56;6427306;23;20338;-69
2022/05/13 06:16:49;;;;;;;10.63;3.50;;;;;;;13.28;92.73;101829.88;6421330;23;20009;-71
2022/05/13 06:19:20;;;;;;;11.27;3.97;;;;;;;13.35;92.41;101832.88;6417142;23;20067;-71
2022/05/13 06:21:51;;;;;;;14.90;4.32;;;;;;;13.46;91.68;101842.53;6419612;23;20048;-70
2022/05/13 06:24:23;;;;;;;13.82;4.35;;;;;;;13.53;92.24;101836.66;6426094;23;20336;-70
2022/05/13 06:26:54;;;;;;;13.27;4.43;;;;;;;13.60;91.98;101851.00;6426765;23;20388;-70
2022/05/13 06:29:26;;;;;;;16.95;4.50;;;;;;;13.68;90.83;101842.47;6426356;23;20001;-69
2022/05/13 06:31:59;;;;;;;12.50;4.13;;;;;;;13.72;90.82;101845.69;6426689;23;20009;-70
2022/05/13 06:34:30;;;;;;;14.07;4.50;;;;;;;13.83;91.29;101854.38;6425378;23;20005;-71
2022/05/13 06:37:02;;;;;;;14.00;4.80;;;;;;;13.81;90.71;101837.84;6400047;23;20088;-72
2022/05/13 06:39:33;;;;;;;13.98;4.78;;;;;;;13.92;90.95;101851.94;6426025;23;20067;-71
2022/05/13 06:42:04;;;;;;;15.15;5.75;;;;;;;14.03;90.13;101851.88;6426285;23;20004;-71
2022/05/13 06:44:36;;;;;;;12.70;4.97;;;;;;;14.17;89.99;101850.69;6425543;23;20004;-69
2022/05/13 06:47:07;;;;;;;15.73;4.63;;;;;;;14.21;89.50;101852.16;6399125;23;20459;-72
2022/05/13 06:49:39;;;;;;;16.70;4.88;;;;;;;14.35;88.90;101863.16;6425413;23;20013;-70
2022/05/13 06:52:13;;;;;;;10.82;4.40;;;;;;;14.45;88.38;101867.69;6422844;23;20071;-70
2022/05/13 06:54:44;;;;;;;13.18;4.72;;;;;;;14.48;87.58;101862.16;6422567;23;20057;-73
2022/05/13 06:57:15;;;;;;;16.17;5.15;;;;;;;14.67;87.29;101861.44;6426177;23;20392;-71
2022/05/13 06:59:47;;;;;;;15.32;4.80;;;;;;;14.57;87.16;101862.22;6426370;23;20009;-73
2022/05/13 07:02:19;;;;;;;17.73;5.05;;;;;;;14.68;86.07;101866.56;6422738;23;20009;-70
2022/05/13 07:04:50;;;;;;;15.65;4.80;;;;;;;14.65;86.75;101869.47;6397413;23;20372;-70
2022/05/13 07:07:22;;;;;;;13.82;4.72;;;;;;;14.74;85.78;101867.88;6425592;23;20388;-70
2022/05/13 07:09:53;;;;;;;11.57;4.35;;;;;;;14.88;86.01;101862.19;6424329;23;20005;-70
2022/05/13 07:12:25;;;;;;;14.32;4.95;;;;;;;14.98;85.64;101851.69;6423575;23;20005;-70
2022/05/13 07:14:56;;;;;;;12.88;4.50;;;;;;;15.10;84.39;101863.81;6423667;23;20032;-70
2022/05/13 07:17:28;;;;;;;17.15;5.50;;;;;;;15.18;82.56;101866.59;6420702;23;20047;-70
2022/05/13 07:19:59;;;;;;;11.18;4.40;;;;;;;15.44;83.62;101861.66;6422564;23;20005;-70
2022/05/13 07:22:31;;;;;;;11.95;4.90;;;;;;;15.52;83.22;101868.91;6425557;23;20013;-71
2022/05/13 07:25:03;;;;;;;18.38;5.88;;;;;;;15.49;81.75;101859.47;6426897;23;20480;-70
2022/05/13 07:27:35;;;;;;;15.05;4.75;;;;;;;15.65;80.78;101864.22;6425572;23;20340;-69
2022/05/13 07:30:07;;;;;;;12.68;4.65;;;;;;;15.70;79.19;101863.81;6426509;23;20033;-70
2022/05/13 07:32:39;;;;;;;9.82;4.35;;;;;;;15.78;77.76;101859.50;6424872;23;20025;-71
2022/05/13 07:35:10;;;;;;;10.55;5.00;;;;;;;15.86;77.26;101865.88;6424048;23;20593;-69
2022/05/13 07:37:42;;;;;;;13.63;4.60;;;;;;;15.87;77.09;101870.19;6424829;23;20013;-70
2022/05/13 07:43:04;;;;;;;11.32;4.13;;;;;;;15.99;74.78;101869.94;6424853;23;20116;-69
2022/05/13 07:45:35;;;;;;;12.18;4.55;;;;;;;16.25;74.94;101875.47;6427953;23;20005;-70
2022/05/13 07:48:07;;;;;;;13.57;4.65;;;;;;;16.27;74.92;101878.78;6427183;23;20005;-70
2022/05/13 07:50:38;;;;;;;9.18;3.65;;;;;;;16.39;72.61;101881.25;6426805;23;20021;-71
2022/05/13 07:53:09;;;;;;;11.82;3.80;;;;;;;16.59;72.24;101876.75;6424071;23;20004;-70
2022/05/13 07:55:41;;;;;;;7.90;3.63;;;;;;;16.67;71.81;101887.47;6427065;23;20463;-70
2022/05/13 07:58:12;;;;;;;12.77;4.07;;;;;;;16.76;70.63;101876.03;6426813;23;20012;-71
2022/05/13 08:00:44;;;;;;;13.75;4.10;;;;;;;17.03;70.28;101880.50;6426674;23;20386;-71
2022/05/13 08:03:17;;;;;;;9.32;3.38;;;;;;;16.98;68.55;101890.72;6427248;23;20396;-71
2022/05/13 08:05:50;;;;;;;9.23;3.72;;;;;;;16.95;67.18;101891.00;6427645;23;20091;-70
2022/05/13 08:08:26;;;;;;;10.13;3.58;;;;;;;17.05;68.92;101889.16;6428238;23;20081;-70
2022/05/13 08:11:01;;;;;;;11.23;3.40;;;;;;;17.07;67.66;101900.41;6427293;23;20013;-71
2022/05/13 08:13:34;;;;;;;9.43;3.75;;;;;;;16.92;66.62;101888.63;6400975;23;20005;-72
2022/05/13 08:16:09;;;;;;;9.98;4.00;;;;;;;17.04;66.15;101895.41;6427752;23;20079;-72
2022/05/13 08:18:41;;;;;;;9.52;4.10;;;;;;;17.00;66.90;101901.97;6425499;23;20012;-71
2022/05/13 08:21:13;;;;;;;9.37;3.37;;;;;;;17.11;65.20;101903.59;6423683;23;20330;-71
2022/05/13 08:23:45;;;;;;;10.05;3.05;;;;;;;17.10;63.10;101899.28;6424997;23;20001;-72
2022/05/13 08:26:17;;;;;;;12.03;3.50;;;;;;;17.20;63.40;101908.03;6422877;23;20029;-72
2022/05/13 08:28:48;;;;;;;8.63;3.10;;;;;;;17.17;63.60;101895.91;6425680;23;20443;-71
2022/05/13 08:31:20;;;;;;;8.80;2.90;;;;;;;17.43;63.37;101896.03;6425961;23;20009;-71
2022/05/13 08:33:51;;;;;;;10.40;3.10;;;;;;;17.56;62.50;101903.63;6398471;23;20021;-73
2022/05/13 08:36:23;;;;;;;9.10;3.22;;;;;;;17.63;61.66;101906.50;6427218;23;20043;-72
2022/05/13 08:38:54;;;;;;;12.63;2.92;;;;;;;17.78;59.80;101901.53;6426814;23;20005;-71
2022/05/13 08:41:47;;;;;;;13.00;2.75;;;;;;;18.19;61.12;101906.22;6422078;23;20001;-71
2022/05/13 08:44:19;;;;;;;9.23;2.55;;;;;;;18.08;58.95;101909.09;6425496;23;20005;-72
2022/05/13 08:46:56;;;;;;;10.57;3.10;;;;;;;18.14;58.80;101911.13;6423967;23;20005;-72
2022/05/13 08:49:51;;;;;;;10.45;2.67;;;;;;;18.37;58.94;101911.50;6425230;23;20039;-71
2022/05/13 08:55:38;;;;;;;11.10;3.22;;;;;;;17.85;56.68;101918.50;6425741;23;20013;-72
2022/05/13 08:58:19;;;;;;;10.55;2.35;;;;;;;17.84;57.69;101914.19;6398055;23;20009;-72
2022/05/13 09:00:55;;;;;;;8.15;2.47;;;;;;;17.90;58.78;101911.75;6423516;23;20024;-72
2022/05/13 09:03:54;;;;;;;6.50;2.70;;;;;;;18.37;58.46;101914.16;6426037;23;20387;-71
2022/05/13 09:06:48;;;;;;;8.82;2.67;;;;;;;18.27;56.18;101915.22;6425942;23;20084;-71
2022/05/13 09:09:20;;;;;;;9.65;2.40;;;;;;;18.19;55.63;101906.22;6400033;23;20005;-72
2022/05/13 09:12:17;;;;;;;8.65;2.67;;;;;;;18.41;55.61;101902.22;6426378;23;20889;-71
2022/05/13 09:15:26;;;;;;;7.80;2.60;;;;;;;18.40;54.76;101915.63;6424970;23;20012;-72
2022/05/13 09:18:08;;;;;;;8.57;2.38;;;;;;;18.44;54.15;101917.81;6425734;23;20441;-73
2022/05/13 09:20:48;;;;;;;5.90;2.43;;;;;;;18.45;54.09;101914.19;6426219;23;20393;-73
2022/05/13 09:23:20;;;;;;;8.18;2.08;;;;;;;18.62;52.72;101903.66;6400433;23;20005;-71
2022/05/13 09:26:06;;;;;;;9.10;2.40;;;;;;;18.56;51.68;101894.53;6399663;23;20016;-74
2022/05/13 09:29:12;;;;;;;8.20;2.00;;;;;;;18.98;51.24;101912.38;6423550;23;20019;-71
2022/05/13 09:31:55;;;;;;;8.07;2.22;;;;;;;18.94;51.33;101924.28;6422796;23;20012;-74
2022/05/13 09:34:26;;;;;;;7.78;2.60;;;;;;;18.84;51.80;101916.44;6423539;23;20001;-71
2022/05/13 09:37:21;;;;;;;7.73;2.47;;;;;;;18.84;49.97;101921.75;6422382;23;20000;-73
2022/05/13 09:40:16;;;;;;;7.57;2.30;;;;;;;18.81;50.11;101924.72;6425671;23;20034;-71
2022/05/13 09:42:51;;;;;;;5.68;1.88;;;;;;;19.03;50.62;101925.16;6425602;23;20032;-72
2022/05/13 09:45:25;;;;;;;8.40;2.20;;;;;;;18.83;48.51;101922.75;6422792;23;20019;-74
2022/05/13 09:48:05;;;;;;;7.65;2.35;;;;;;;19.18;49.02;101920.91;6423909;23;20663;-71
2022/05/13 09:50:38;;;;;;;9.23;2.20;;;;;;;19.13;49.98;101925.84;6426363;23;20083;-74
2022/05/13 09:53:22;;;;;;;8.23;2.20;;;;;;;19.24;48.43;101928.22;6425090;23;20009;-73
2022/05/13 09:55:58;;;;;;;7.85;2.08;;;;;;;18.90;48.11;101933.53;6424476;23;20008;-72
2022/05/13 09:58:35;;;;;;;10.63;2.08;;;;;;;18.94;48.88;101934.88;6425032;23;20063;-72
2022/05/13 10:01:10;;;;;;;5.65;1.92;;;;;;;18.78;49.79;101926.84;6425858;23;20406;-72
2022/05/13 10:04:01;;;;;;;9.57;1.70;;;;;;;18.78;49.12;101926.84;6425656;23;20504;-73
2022/05/13 10:06:34;;;;;;;6.72;1.75;;;;;;;18.36;46.49;101927.53;6397352;23;20063;-74
2022/05/13 10:15:11;;;;;;;5.30;1.42;;;;;;;18.44;48.54;101931.09;6423043;23;20537;-72
2022/05/13 10:17:50;;;;;;;10.02;2.15;;;;;;;18.35;49.82;101939.16;6424923;23;20037;-74
2022/05/13 10:20:39;;;;;;;7.28;2.20;;;;;;;18.47;49.88;101946.69;6426054;23;20016;-72
2022/05/13 10:23:17;;;;;;;7.97;2.30;;;;;;;18.37;51.03;101940.69;6426960;23;20009;-72
2022/05/13 10:25:57;;;;;;;6.60;1.92;;;;;;;18.60;49.66;101938.34;6425429;23;20386;-72
2022/05/13 10:28:35;;;;;;;7.60;2.00;;;;;;;19.05;48.68;101926.66;6399744;23;20016;-74
2022/05/13 10:31:15;;;;;;;7.47;1.83;;;;;;;19.39;47.89;101929.25;6423530;23;20384;-72
2022/05/13 10:34:20;;;;;;;8.73;2.30;;;;;;;19.47;47.99;101931.13;6424191;23;20005;-71
2022/05/13 10:36:57;;;;;;;8.68;2.25;;;;;;;19.09;46.95;101936.00;6426513;23;20013;-71
2022/05/13 10:39:41;;;;;;;10.30;2.25;;;;;;;19.00;46.03;101933.44;6425835;23;20004;-70
2022/05/13 10:42:20;;;;;;;7.93;1.80;;;;;;;19.28;46.85;101926.06;6425704;23;20024;-70
2022/05/13 10:44:59;;;;;;;4.57;1.33;;;;;;;19.67;46.87;101929.06;6426168;23;20450;-73
2022/05/13 10:47:37;;;;;;;7.25;2.08;;;;;;;19.47;45.62;101928.47;6425990;23;20011;-73
2022/05/13 10:50:21;;;;;;;7.10;2.00;;;;;;;19.47;46.62;101935.59;6426734;23;20344;-71
2022/05/13 10:53:08;;;;;;;9.30;2.40;;;;;;;19.51;47.29;101926.31;6426152;23;20113;-71
2022/05/13 10:56:07;;;;;;;5.47;1.80;;;;;;;19.61;46.17;101932.31;6424611;23;20056;-71
2022/05/13 10:58:55;;;;;;;10.23;1.92;;;;;;;19.86;46.20;101931.41;6397253;23;20403;-71
2022/05/13 11:01:45;;;;;;;7.97;2.20;;;;;;;20.14;44.55;101934.56;6426668;23;20450;-71
2022/05/13 11:04:38;;;;;;;6.03;1.92;;;;;;;20.03;44.77;101937.56;6428120;23;20005;-71
2022/05/13 11:07:09;;;;;;;9.70;2.35;;;;;;;20.21;44.96;101928.59;6426852;23;20039;-71
2022/05/13 11:09:55;;;;;;;7.43;1.77;;;;;;;20.65;44.42;101929.91;6428777;23;20445;-71
2022/05/13 11:12:35;;;;;;;5.45;2.28;;;;;;;20.82;42.65;101921.84;6427521;23;20005;-71
2022/05/13 11:15:22;;;;;;;6.18;1.52;;;;;;;20.94;41.27;101935.63;6426887;23;20059;-72
2022/05/13 11:18:12;;;;;;;3.92;1.55;;;;;;;20.67;39.74;101932.38;6426068;23;20059;-71
2022/05/13 11:21:14;;;;;;;5.65;2.03;;;;;;;20.54;41.93;101935.56;6427641;23;20036;-71
2022/05/13 11:27:31;;;;;;;8.38;1.92;;;;;;;20.08;43.92;101940.56;6427315;23;20009;-71
2022/05/13 11:30:18;;;;;;;6.63;1.90;;;;;;;20.10;44.18;101938.56;6425854;23;20009;-71
2022/05/13 11:32:59;;;;;;;5.95;2.10;;;;;;;19.88;43.55;101934.72;6427229;23;20299;-71
2022/05/13 11:35:39;;;;;;;6.70;1.88;;;;;;;20.27;42.39;101939.41;6424578;23;20099;-72
2022/05/13 11:38:43;;;;;;;4.63;1.70;;;;;;;20.61;42.48;101939.22;6424486;23;20009;-72
2022/05/13 11:41:20;;;;;;;4.32;1.40;;;;;;;20.59;42.16;101930.56;6427291;23;20452;-71
2022/05/13 11:44:00;;;;;;;5.45;1.55;;;;;;;21.01;41.81;101934.78;6426000;23;20005;-71
2022/05/13 11:46:45;;;;;;;6.18;1.90;;;;;;;20.91;40.96;101934.16;6425413;23;20516;-72
2022/05/13 11:49:35;;;;;;;8.68;2.17;;;;;;;21.38;41.12;101935.97;6398037;23;20041;-71
2022/05/13 11:52:12;;;;;;;5.63;1.58;;;;;;;21.31;40.20;101930.47;6421917;23;20028;-72
2022/05/13 11:54:44;;;;;;;4.75;1.83;;;;;;;20.92;40.63;101935.81;6415565;23;20376;-72
2022/05/13 11:57:25;;;;;;;6.43;2.13;;;;;;;20.86;40.61;101932.00;6395355;23;20004;-72
2022/05/13 12:00:31;;;;;;;9.07;2.38;;;;;;;20.85;41.21;101942.84;6424063;23;20001;-71
2022/05/13 12:03:02;;;;;;;7.50;2.17;;;;;;;20.69;41.65;101946.38;6426801;23;20009;-70
2022/05/13 12:05:57;;;;;;;7.77;2.00;;;;;;;20.98;41.16;101945.78;6426182;23;20738;-71
2022/05/13 12:08:36;;;;;;;6.57;2.50;;;;;;;20.71;41.97;101938.19;6427282;23;20009;-70
2022/05/13 12:11:29;;;;;;;6.20;1.98;;;;;;;20.97;42.44;101941.44;6424120;23;20013;-72
2022/05/13 12:14:26;;;;;;;5.95;1.88;;;;;;;21.43;41.91;101928.28;6425917;23;20033;-72
2022/05/13 12:17:11;;;;;;;7.05;2.40;;;;;;;21.65;39.69;101939.16;6426771;23;20004;-72
2022/05/13 12:20:19;;;;;;;6.18;2.15;;;;;;;21.60;39.52;101934.38;6398985;23;20067;-72
2022/05/13 12:23:25;;;;;;;9.98;2.40;;;;;;;21.88;40.44;101929.31;6424719;23;20429;-71
2022/05/13 12:25:59;;;;;;;9.60;3.22;;;;;;;21.65;39.52;101929.31;6418503;23;20448;-70
2022/05/13 12:28:45;;;;;;;5.65;2.53;;;;;;;21.61;40.44;101930.69;6427189;23;20107;-71
2022/05/13 12:31:34;;;;;;;6.75;3.38;;;;;;;21.90;38.92;101935.34;6426019;23;20012;-71
2022/05/13 12:39:52;;;;;;;12.77;4.78;;;;;;;21.93;39.42;101929.59;6426238;23;20017;-72
2022/05/13 12:42:52;;;;;;;11.20;5.18;;;;;;;22.20;39.37;101935.44;6426798;23;20364;-71
2022/05/13 12:45:35;;;;;;;7.00;4.65;;;;;;;22.34;38.50;101924.78;6426103;23;20005;-71